ILK YBOK-YAMB
Flight info
| Callsign | ILK |
|---|---|
| Flight time | 0h 54m |
| Altitude | 3000 |
| Route | YBOK CCTS DCT YAMB |
| Aircraft | T6/L-V/N |
Departure
| Time | 2026-04-25 08:04 |
|---|---|
| Airport | Oakey Army Aviation Centre (YBOK) |
Arrival
| Time | 2026-04-25 08:58 |
|---|---|
| Airport | RAAF Base Amberley (YAMB) |
| Time | Latitude | Longitude | Altitude | Speed | Heading |
|---|---|---|---|---|---|
| 2026-04-25 07:54 | -27.41291 | 151.73409 | 1359 ft | 0 kts | 98° |
| 2026-04-25 07:57 | -27.41253 | 151.73455 | 1334 ft | 12 kts | 12° |
| 2026-04-25 07:57 | -27.41173 | 151.73470 | 1334 ft | 10 kts | 9° |
| 2026-04-25 07:57 | -27.41119 | 151.73484 | 1333 ft | 7 kts | 24° |
| 2026-04-25 07:58 | -27.41048 | 151.73567 | 1333 ft | 22 kts | 56° |
| 2026-04-25 07:58 | -27.40965 | 151.73701 | 1334 ft | 21 kts | 55° |
| 2026-04-25 07:58 | -27.40923 | 151.73771 | 1334 ft | 0 kts | 31° |
| 2026-04-25 08:00 | -27.40896 | 151.73811 | 1334 ft | 13 kts | 59° |
| 2026-04-25 08:00 | -27.40839 | 151.73910 | 1335 ft | 0 kts | 56° |
| 2026-04-25 08:02 | -27.40779 | 151.74001 | 1336 ft | 20 kts | 54° |
| 2026-04-25 08:02 | -27.40732 | 151.74073 | 1337 ft | 7 kts | 79° |
| 2026-04-25 08:03 | -27.40770 | 151.74109 | 1337 ft | 24 kts | 146° |
| 2026-04-25 08:03 | -27.41046 | 151.74313 | 1338 ft | 69 kts | 143° |
| 2026-04-25 08:03 | -27.41322 | 151.74540 | 1451 ft | 74 kts | 139° |
| 2026-04-25 08:03 | -27.41690 | 151.74935 | 1712 ft | 68 kts | 136° |
| 2026-04-25 08:04 | -27.42133 | 151.75342 | 1995 ft | 67 kts | 134° |
| 2026-04-25 08:04 | -27.42394 | 151.75611 | 2118 ft | 84 kts | 131° |
| 2026-04-25 08:04 | -27.42464 | 151.76239 | 2381 ft | 104 kts | 53° |
| 2026-04-25 08:04 | -27.41820 | 151.76713 | 2716 ft | 130 kts | 1° |
| 2026-04-25 08:05 | -27.40975 | 151.76163 | 2846 ft | 138 kts | 328° |
| 2026-04-25 08:05 | -27.40226 | 151.75549 | 2943 ft | 127 kts | 327° |
| 2026-04-25 08:05 | -27.39573 | 151.74981 | 2836 ft | 116 kts | 327° |
| 2026-04-25 08:05 | -27.38923 | 151.74420 | 2602 ft | 118 kts | 327° |
| 2026-04-25 08:06 | -27.38413 | 151.73749 | 2350 ft | 115 kts | 265° |
| 2026-04-25 08:06 | -27.38802 | 151.73120 | 2074 ft | 86 kts | 200° |
| 2026-04-25 08:06 | -27.39347 | 151.73125 | 1783 ft | 80 kts | 155° |
| 2026-04-25 08:06 | -27.39850 | 151.73392 | 1544 ft | 80 kts | 146° |
| 2026-04-25 08:07 | -27.40282 | 151.73716 | 1379 ft | 65 kts | 143° |
| 2026-04-25 08:07 | -27.40591 | 151.73963 | 1336 ft | 43 kts | 147° |
| 2026-04-25 08:07 | -27.40869 | 151.74196 | 1492 ft | 51 kts | 133° |
| 2026-04-25 08:07 | -27.41223 | 151.74484 | 1752 ft | 60 kts | 146° |
| 2026-04-25 08:08 | -27.41606 | 151.74721 | 2037 ft | 73 kts | 146° |
| 2026-04-25 08:08 | -27.42076 | 151.75127 | 2228 ft | 102 kts | 134° |
| 2026-04-25 08:08 | -27.42678 | 151.75753 | 2365 ft | 133 kts | 133° |
| 2026-04-25 08:08 | -27.43209 | 151.76615 | 2590 ft | 139 kts | 85° |
| 2026-04-25 08:09 | -27.42536 | 151.77416 | 2993 ft | 141 kts | 42° |
| 2026-04-25 08:09 | -27.41643 | 151.78063 | 3079 ft | 158 kts | 37° |
| 2026-04-25 08:09 | -27.40513 | 151.78094 | 3223 ft | 183 kts | 335° |
| 2026-04-25 08:09 | -27.39586 | 151.77093 | 3316 ft | 173 kts | 314° |
| 2026-04-25 08:10 | -27.38834 | 151.76173 | 3358 ft | 160 kts | 314° |
| 2026-04-25 08:10 | -27.38123 | 151.75197 | 3451 ft | 161 kts | 303° |
| 2026-04-25 08:10 | -27.37430 | 151.74202 | 3495 ft | 164 kts | 311° |
| 2026-04-25 08:10 | -27.36829 | 151.73239 | 3704 ft | 138 kts | 306° |
| 2026-04-25 08:11 | -27.36490 | 151.72287 | 3513 ft | 127 kts | 248° |
| 2026-04-25 08:11 | -27.37118 | 151.71843 | 2956 ft | 113 kts | 172° |
| 2026-04-25 08:11 | -27.37870 | 151.72080 | 2489 ft | 119 kts | 154° |
| 2026-04-25 08:11 | -27.38643 | 151.72461 | 2005 ft | 123 kts | 147° |
| 2026-04-25 08:12 | -27.39328 | 151.72967 | 1700 ft | 112 kts | 143° |
| 2026-04-25 08:12 | -27.39884 | 151.73399 | 1478 ft | 85 kts | 143° |
| 2026-04-25 08:12 | -27.40313 | 151.73742 | 1361 ft | 68 kts | 144° |
| 2026-04-25 08:12 | -27.40644 | 151.74002 | 1344 ft | 50 kts | 146° |
| 2026-04-25 08:13 | -27.40971 | 151.74201 | 1478 ft | 57 kts | 146° |
| 2026-04-25 08:13 | -27.41180 | 151.74527 | 1648 ft | 54 kts | 167° |
| 2026-04-25 08:13 | -27.41550 | 151.74672 | 2009 ft | 43 kts | 163° |
| 2026-04-25 08:14 | -27.41774 | 151.75552 | 2464 ft | 82 kts | 94° |
| 2026-04-25 08:14 | -27.41195 | 151.75803 | 2653 ft | 138 kts | 340° |
| 2026-04-25 08:14 | -27.40356 | 151.75146 | 2635 ft | 144 kts | 327° |
| 2026-04-25 08:14 | -27.39611 | 151.74509 | 2450 ft | 130 kts | 327° |
| 2026-04-25 08:15 | -27.38924 | 151.73943 | 2359 ft | 116 kts | 326° |
| 2026-04-25 08:15 | -27.38303 | 151.73432 | 2282 ft | 110 kts | 324° |
| 2026-04-25 08:15 | -27.37658 | 151.72890 | 2326 ft | 121 kts | 325° |
| 2026-04-25 08:15 | -27.36994 | 151.72266 | 2366 ft | 125 kts | 321° |
| 2026-04-25 08:16 | -27.36323 | 151.71607 | 2411 ft | 129 kts | 326° |
| 2026-04-25 08:16 | -27.35616 | 151.70995 | 2471 ft | 130 kts | 325° |
| 2026-04-25 08:16 | -27.35008 | 151.70440 | 2568 ft | 106 kts | 326° |
| 2026-04-25 08:16 | -27.34461 | 151.69892 | 2503 ft | 104 kts | 322° |
| 2026-04-25 08:17 | -27.33927 | 151.69377 | 2521 ft | 95 kts | 323° |
| 2026-04-25 08:17 | -27.33872 | 151.68705 | 2416 ft | 95 kts | 218° |
| 2026-04-25 08:17 | -27.34355 | 151.68895 | 2373 ft | 86 kts | 132° |
| 2026-04-25 08:17 | -27.34778 | 151.69379 | 2583 ft | 83 kts | 130° |
| 2026-04-25 08:18 | -27.35303 | 151.69737 | 2594 ft | 94 kts | 148° |
| 2026-04-25 08:18 | -27.35854 | 151.70103 | 2690 ft | 93 kts | 141° |
| 2026-04-25 08:18 | -27.36403 | 151.70530 | 2744 ft | 99 kts | 139° |
| 2026-04-25 08:18 | -27.36986 | 151.71017 | 2627 ft | 109 kts | 140° |
| 2026-04-25 08:19 | -27.37629 | 151.71546 | 2362 ft | 117 kts | 140° |
| 2026-04-25 08:19 | -27.38355 | 151.72196 | 2069 ft | 154 kts | 141° |
| 2026-04-25 08:19 | -27.39212 | 151.72871 | 1738 ft | 138 kts | 144° |
| 2026-04-25 08:19 | -27.39884 | 151.73399 | 1482 ft | 99 kts | 141° |
| 2026-04-25 08:20 | -27.40373 | 151.73789 | 1348 ft | 74 kts | 142° |
| 2026-04-25 08:20 | -27.40708 | 151.74056 | 1336 ft | 40 kts | 147° |
| 2026-04-25 08:20 | -27.40846 | 151.74075 | 1336 ft | 15 kts | 227° |
| 2026-04-25 08:20 | -27.40901 | 151.73990 | 1335 ft | 11 kts | 234° |
| 2026-04-25 08:21 | -27.40929 | 151.73938 | 1335 ft | 3 kts | 265° |
| 2026-04-25 08:21 | -27.40929 | 151.73937 | 1335 ft | 0 kts | 269° |
| 2026-04-25 08:22 | -27.40928 | 151.73932 | 1335 ft | 0 kts | 317° |
| 2026-04-25 08:22 | -27.40915 | 151.73934 | 1336 ft | 9 kts | 44° |
| 2026-04-25 08:23 | -27.40902 | 151.73975 | 1335 ft | 0 kts | 75° |
| 2026-04-25 08:24 | -27.40880 | 151.74022 | 1335 ft | 12 kts | 60° |
| 2026-04-25 08:25 | -27.40845 | 151.74085 | 1337 ft | 0 kts | 54° |
| 2026-04-25 08:25 | -27.40845 | 151.74084 | 1337 ft | 0 kts | 54° |
| 2026-04-25 08:25 | -27.40845 | 151.74085 | 1337 ft | 0 kts | 54° |
| 2026-04-25 08:25 | -27.40845 | 151.74084 | 1337 ft | 0 kts | 54° |
| 2026-04-25 08:26 | -27.40845 | 151.74085 | 1337 ft | 0 kts | 54° |
| 2026-04-25 08:26 | -27.40823 | 151.74128 | 1337 ft | 7 kts | 67° |
| 2026-04-25 08:26 | -27.40819 | 151.74141 | 1337 ft | 1 kts | 114° |
| 2026-04-25 08:26 | -27.40835 | 151.74152 | 1337 ft | 6 kts | 144° |
| 2026-04-25 08:27 | -27.40836 | 151.74152 | 1337 ft | 0 kts | 144° |
| 2026-04-25 08:27 | -27.40887 | 151.74197 | 1337 ft | 29 kts | 146° |
| 2026-04-25 08:27 | -27.41187 | 151.74416 | 1404 ft | 63 kts | 140° |
| 2026-04-25 08:27 | -27.41535 | 151.74698 | 1669 ft | 60 kts | 138° |
| 2026-04-25 08:28 | -27.41933 | 151.74989 | 1896 ft | 76 kts | 132° |
| 2026-04-25 08:28 | -27.41875 | 151.75613 | 2050 ft | 114 kts | 50° |
| 2026-04-25 08:28 | -27.41187 | 151.76291 | 2110 ft | 147 kts | 29° |
| 2026-04-25 08:28 | -27.40253 | 151.75826 | 2205 ft | 168 kts | 315° |
| 2026-04-25 08:29 | -27.39221 | 151.75115 | 2170 ft | 181 kts | 332° |
| 2026-04-25 08:29 | -27.38115 | 151.74400 | 2189 ft | 183 kts | 332° |
| 2026-04-25 08:29 | -27.37005 | 151.73648 | 2136 ft | 190 kts | 332° |
| 2026-04-25 08:29 | -27.35857 | 151.72919 | 2156 ft | 187 kts | 337° |
| 2026-04-25 08:30 | -27.34762 | 151.72317 | 2280 ft | 154 kts | 337° |
| 2026-04-25 08:30 | -27.33958 | 151.71844 | 2377 ft | 114 kts | 338° |
| 2026-04-25 08:30 | -27.33265 | 151.71443 | 2428 ft | 115 kts | 338° |
| 2026-04-25 08:30 | -27.32537 | 151.71018 | 2437 ft | 115 kts | 338° |
| 2026-04-25 08:31 | -27.31844 | 151.70614 | 2463 ft | 110 kts | 337° |
| 2026-04-25 08:31 | -27.31147 | 151.70211 | 2536 ft | 113 kts | 338° |
| 2026-04-25 08:31 | -27.30441 | 151.69813 | 2594 ft | 113 kts | 339° |
| 2026-04-25 08:31 | -27.29732 | 151.69457 | 2665 ft | 114 kts | 342° |
| 2026-04-25 08:32 | -27.29029 | 151.69052 | 2796 ft | 113 kts | 332° |
| 2026-04-25 08:32 | -27.28519 | 151.68355 | 2767 ft | 125 kts | 273° |
| 2026-04-25 08:32 | -27.28915 | 151.67628 | 2672 ft | 110 kts | 186° |
| 2026-04-25 08:32 | -27.29595 | 151.67785 | 2672 ft | 101 kts | 158° |
| 2026-04-25 08:33 | -27.30298 | 151.67975 | 2644 ft | 103 kts | 163° |
| 2026-04-25 08:33 | -27.31031 | 151.68142 | 2617 ft | 118 kts | 163° |
| 2026-04-25 08:33 | -27.31902 | 151.68385 | 2689 ft | 139 kts | 159° |
| 2026-04-25 08:33 | -27.32901 | 151.68689 | 2641 ft | 156 kts | 159° |
| 2026-04-25 08:34 | -27.33968 | 151.69031 | 2659 ft | 160 kts | 159° |
| 2026-04-25 08:34 | -27.34976 | 151.69564 | 2583 ft | 161 kts | 145° |
| 2026-04-25 08:34 | -27.35944 | 151.70240 | 2466 ft | 165 kts | 143° |
| 2026-04-25 08:34 | -27.36856 | 151.70998 | 2358 ft | 168 kts | 141° |
| 2026-04-25 08:35 | -27.37841 | 151.71796 | 1995 ft | 180 kts | 144° |
| 2026-04-25 08:35 | -27.38889 | 151.72594 | 1663 ft | 179 kts | 143° |
| 2026-04-25 08:35 | -27.39906 | 151.73417 | 1453 ft | 179 kts | 143° |
| 2026-04-25 08:35 | -27.40921 | 151.74211 | 1371 ft | 175 kts | 144° |
| 2026-04-25 08:36 | -27.41809 | 151.74865 | 2095 ft | 120 kts | 147° |
| 2026-04-25 08:36 | -27.42516 | 151.75484 | 2310 ft | 131 kts | 131° |
| 2026-04-25 08:36 | -27.42960 | 151.76332 | 2776 ft | 123 kts | 115° |
| 2026-04-25 08:36 | -27.43330 | 151.77211 | 3110 ft | 125 kts | 115° |
| 2026-04-25 08:37 | -27.43678 | 151.78083 | 3487 ft | 124 kts | 115° |
| 2026-04-25 08:37 | -27.44036 | 151.78998 | 3768 ft | 125 kts | 115° |
| 2026-04-25 08:37 | -27.44349 | 151.79748 | 4584 ft | 92 kts | 117° |
| 2026-04-25 08:37 | -27.44647 | 151.80405 | 4946 ft | 102 kts | 117° |
| 2026-04-25 08:38 | -27.45006 | 151.81173 | 5107 ft | 119 kts | 117° |
| 2026-04-25 08:38 | -27.45398 | 151.82023 | 5301 ft | 127 kts | 118° |
| 2026-04-25 08:38 | -27.45831 | 151.82926 | 5421 ft | 135 kts | 118° |
| 2026-04-25 08:38 | -27.46274 | 151.83879 | 5501 ft | 141 kts | 117° |
| 2026-04-25 08:39 | -27.46735 | 151.84875 | 5448 ft | 148 kts | 117° |
| 2026-04-25 08:39 | -27.47195 | 151.85962 | 5423 ft | 143 kts | 117° |
| 2026-04-25 08:39 | -27.47654 | 151.86935 | 5605 ft | 137 kts | 118° |
| 2026-04-25 08:39 | -27.48128 | 151.87885 | 5654 ft | 143 kts | 121° |
| 2026-04-25 08:40 | -27.48654 | 151.88837 | 5787 ft | 142 kts | 123° |
| 2026-04-25 08:40 | -27.49181 | 151.89760 | 5993 ft | 138 kts | 122° |
| 2026-04-25 08:40 | -27.49684 | 151.90654 | 6261 ft | 132 kts | 122° |
| 2026-04-25 08:40 | -27.50176 | 151.91542 | 6305 ft | 140 kts | 121° |
| 2026-04-25 08:41 | -27.50673 | 151.92522 | 6199 ft | 150 kts | 119° |
| 2026-04-25 08:41 | -27.51202 | 151.93572 | 6046 ft | 156 kts | 118° |
| 2026-04-25 08:41 | -27.51723 | 151.94688 | 5809 ft | 163 kts | 118° |
| 2026-04-25 08:41 | -27.52246 | 151.95851 | 5475 ft | 169 kts | 116° |
| 2026-04-25 08:42 | -27.52775 | 151.97044 | 5149 ft | 172 kts | 117° |
| 2026-04-25 08:42 | -27.53295 | 151.98243 | 5091 ft | 161 kts | 116° |
| 2026-04-25 08:42 | -27.53744 | 151.99391 | 5033 ft | 161 kts | 114° |
| 2026-04-25 08:42 | -27.54193 | 152.00508 | 5117 ft | 153 kts | 115° |
| 2026-04-25 08:43 | -27.54578 | 152.01643 | 5031 ft | 158 kts | 111° |
| 2026-04-25 08:43 | -27.54923 | 152.02818 | 4994 ft | 157 kts | 110° |
| 2026-04-25 08:43 | -27.55251 | 152.03995 | 4958 ft | 158 kts | 110° |
| 2026-04-25 08:43 | -27.55579 | 152.05178 | 4968 ft | 157 kts | 109° |
| 2026-04-25 08:44 | -27.55878 | 152.06338 | 5049 ft | 152 kts | 109° |
| 2026-04-25 08:44 | -27.56184 | 152.07454 | 5155 ft | 148 kts | 109° |
| 2026-04-25 08:44 | -27.56481 | 152.08572 | 5171 ft | 149 kts | 109° |
| 2026-04-25 08:44 | -27.56781 | 152.09673 | 5194 ft | 150 kts | 109° |
| 2026-04-25 08:45 | -27.57069 | 152.10824 | 5111 ft | 156 kts | 107° |
| 2026-04-25 08:45 | -27.57300 | 152.12030 | 5047 ft | 157 kts | 103° |
| 2026-04-25 08:45 | -27.57489 | 152.13241 | 5027 ft | 157 kts | 103° |
| 2026-04-25 08:45 | -27.57701 | 152.14440 | 5018 ft | 155 kts | 105° |
| 2026-04-25 08:46 | -27.57937 | 152.15633 | 4922 ft | 158 kts | 105° |
| 2026-04-25 08:46 | -27.58171 | 152.16853 | 4806 ft | 160 kts | 104° |
| 2026-04-25 08:46 | -27.58378 | 152.18092 | 4653 ft | 163 kts | 103° |
| 2026-04-25 08:46 | -27.58571 | 152.19364 | 4489 ft | 165 kts | 102° |
| 2026-04-25 08:47 | -27.58729 | 152.20631 | 4362 ft | 165 kts | 100° |
| 2026-04-25 08:47 | -27.58832 | 152.21940 | 4126 ft | 169 kts | 98° |
| 2026-04-25 08:47 | -27.58926 | 152.23279 | 3824 ft | 175 kts | 97° |
| 2026-04-25 08:47 | -27.58967 | 152.24593 | 3859 ft | 164 kts | 95° |
| 2026-04-25 08:48 | -27.58953 | 152.25864 | 3876 ft | 160 kts | 94° |
| 2026-04-25 08:48 | -27.58921 | 152.27085 | 4004 ft | 155 kts | 93° |
| 2026-04-25 08:48 | -27.58851 | 152.28334 | 3812 ft | 167 kts | 90° |
| 2026-04-25 08:48 | -27.58717 | 152.29664 | 3652 ft | 170 kts | 88° |
| 2026-04-25 08:49 | -27.58592 | 152.30972 | 3634 ft | 166 kts | 89° |
| 2026-04-25 08:49 | -27.58486 | 152.32273 | 3543 ft | 167 kts | 90° |
| 2026-04-25 08:49 | -27.58368 | 152.33572 | 3513 ft | 165 kts | 89° |
| 2026-04-25 08:49 | -27.58279 | 152.34855 | 3462 ft | 165 kts | 90° |
| 2026-04-25 08:50 | -27.58192 | 152.36140 | 3483 ft | 162 kts | 90° |
| 2026-04-25 08:50 | -27.58108 | 152.37382 | 3528 ft | 160 kts | 91° |
| 2026-04-25 08:50 | -27.58050 | 152.38635 | 3571 ft | 159 kts | 92° |
| 2026-04-25 08:50 | -27.57970 | 152.39454 | 3708 ft | 155 kts | 87° |
| 2026-04-25 08:51 | -27.57734 | 152.41086 | 3598 ft | 164 kts | 86° |
| 2026-04-25 08:51 | -27.57637 | 152.41949 | 3537 ft | 165 kts | 89° |
| 2026-04-25 08:51 | -27.57504 | 152.43681 | 3459 ft | 163 kts | 90° |
| 2026-04-25 08:51 | -27.57403 | 152.44948 | 3502 ft | 161 kts | 89° |
| 2026-04-25 08:52 | -27.57297 | 152.46229 | 3362 ft | 168 kts | 91° |
| 2026-04-25 08:52 | -27.57306 | 152.47128 | 3204 ft | 171 kts | 99° |
| 2026-04-25 08:52 | -27.57417 | 152.48432 | 3183 ft | 165 kts | 98° |
| 2026-04-25 08:52 | -27.57508 | 152.49697 | 3239 ft | 161 kts | 98° |
| 2026-04-25 08:53 | -27.57580 | 152.50952 | 3234 ft | 161 kts | 97° |
| 2026-04-25 08:53 | -27.57638 | 152.52218 | 3231 ft | 160 kts | 97° |
| 2026-04-25 08:53 | -27.57734 | 152.53455 | 3261 ft | 156 kts | 101° |
| 2026-04-25 08:53 | -27.57837 | 152.54699 | 3164 ft | 164 kts | 100° |
| 2026-04-25 08:54 | -27.57913 | 152.56003 | 3005 ft | 168 kts | 100° |
| 2026-04-25 08:54 | -27.58009 | 152.57323 | 2906 ft | 168 kts | 101° |
| 2026-04-25 08:54 | -27.58098 | 152.58605 | 2922 ft | 164 kts | 99° |
| 2026-04-25 08:54 | -27.58198 | 152.59902 | 2633 ft | 172 kts | 101° |
| 2026-04-25 08:55 | -27.58267 | 152.61261 | 2335 ft | 175 kts | 96° |
| 2026-04-25 08:55 | -27.58266 | 152.62626 | 2130 ft | 172 kts | 95° |
| 2026-04-25 08:55 | -27.58251 | 152.63975 | 1990 ft | 172 kts | 94° |
| 2026-04-25 08:55 | -27.58238 | 152.65334 | 1725 ft | 177 kts | 95° |
| 2026-04-25 08:56 | -27.58254 | 152.66743 | 1468 ft | 180 kts | 95° |
| 2026-04-25 08:56 | -27.58603 | 152.68046 | 1325 ft | 176 kts | 124° |
| 2026-04-25 08:56 | -27.59296 | 152.69072 | 986 ft | 143 kts | 136° |
| 2026-04-25 08:56 | -27.60058 | 152.69611 | 790 ft | 119 kts | 157° |
| 2026-04-25 08:57 | -27.60772 | 152.69925 | 539 ft | 109 kts | 160° |
| 2026-04-25 08:57 | -27.61468 | 152.70218 | 286 ft | 95 kts | 160° |
| 2026-04-25 08:57 | -27.62014 | 152.70462 | 144 ft | 74 kts | 162° |
| 2026-04-25 08:57 | -27.62426 | 152.70641 | 91 ft | 53 kts | 164° |
| 2026-04-25 08:58 | -27.62704 | 152.70753 | 90 ft | 32 kts | 155° |
| 2026-04-25 08:58 | -27.62841 | 152.70803 | 92 ft | 29 kts | 155° |
| 2026-04-25 08:58 | -27.63150 | 152.70951 | 91 ft | 44 kts | 163° |
| 2026-04-25 08:58 | -27.63325 | 152.71025 | 89 ft | 18 kts | 161° |
| 2026-04-25 08:59 | -27.63388 | 152.70985 | 91 ft | 21 kts | 276° |
| 2026-04-25 08:59 | -27.63368 | 152.70820 | 92 ft | 18 kts | 258° |